Humidity-temperature Sensor

Selected Measurement Type: Air Temperature

 
Air Temperature [°C]     6 entries per hour
Showing data from 7/3/2022 (00:00:00 Z) to 6/30/2022 (00:01:00 Z)
Previous Next [ Day | 3-Days | 7-Days ]
First Last
Prev [ Day | 3-Days | 7-Days ] Next
First Last

Start Time:     :
End Time:     :     
Time (in GMT) :00 :50 :40 :30 :20 :10
Previous Next [ Day | 3-Days | 7-Days ]
First Last
Prev [ Day | 3-Days | 7-Days ] Next
First Last


123 => good data
MM => data is determined as missing
-- => data not received/configured
Back to Top Back to Top
7/3/2022 00:00 to 23:10 26.06 26.01 25.70 25.71 25.84 25.97
7/2/2022 23:00 to 22:10 25.85 26.02 25.89 26.02 26.00 25.85
7/2/2022 22:00 to 21:10 26.07 25.95 26.00 25.91 25.97 26.00
7/2/2022 21:00 to 20:10 25.95 25.89 26.10 25.98 25.92 25.91
7/2/2022 20:00 to 19:10 25.94 25.89 26.00 26.06 25.91 25.79
7/2/2022 19:00 to 18:10 26.02 25.95 25.94 25.94 26.02 26.04
7/2/2022 18:00 to 17:10 26.04 25.99 26.11 26.01 26.01 25.93
7/2/2022 17:00 to 16:10 26.03 26.11 26.06 26.05 26.13 26.04
7/2/2022 16:00 to 15:10 26.18 26.12 26.02 25.92 25.92 26.05
7/2/2022 15:00 to 14:10 25.89 25.64 25.68 25.55 25.54 25.41
7/2/2022 14:00 to 13:10 25.39 25.77 25.68 25.57 25.78 25.56
7/2/2022 13:00 to 12:10 25.65 25.65 25.62 25.50 25.59 25.51
7/2/2022 12:00 to 11:10 25.57 25.49 25.52 25.60 25.62 25.64
7/2/2022 11:00 to 10:10 25.65 25.71 25.47 25.56 25.55 25.61
7/2/2022 10:00 to 9:10 25.74 25.67 25.67 25.79 25.70 25.89
7/2/2022 09:00 to 8:10 25.79 25.72 25.87 25.79 25.74 25.71
7/2/2022 08:00 to 7:10 25.74 25.68 25.70 25.84 25.75 25.86
7/2/2022 07:00 to 6:10 25.75 25.74 25.82 25.71 25.83 25.81
7/2/2022 06:00 to 5:10 25.93 25.87 25.93 25.77 25.97 25.94
7/2/2022 05:00 to 4:10 25.98 26.04 25.85 25.93 25.68 25.94
7/2/2022 04:00 to 3:10 25.71 25.81 25.60 25.67 25.85 25.93
7/2/2022 03:00 to 2:10 25.72 25.79 25.94 25.74 25.94 25.93
7/2/2022 02:00 to 1:10 25.92 25.92 25.94 25.90 25.87 25.99
7/2/2022 01:00 to 0:10 25.86 25.87 25.83 25.88 25.95 25.84
7/2/2022 00:00 to 23:10 25.78 25.77 25.85 25.87 25.77 25.80
7/1/2022 23:00 to 22:10 25.97 25.97 25.82 25.93 25.70 25.95
7/1/2022 22:00 to 21:10 25.99 25.94 25.96 26.00 25.90 25.93
7/1/2022 21:00 to 20:10 25.84 26.26 25.92 25.88 26.21 26.02
7/1/2022 20:00 to 19:10 26.03 25.95 26.00 25.92 26.07 25.97
7/1/2022 19:00 to 18:10 25.83 25.86 25.96 26.09 25.92 25.97
7/1/2022 18:00 to 17:10 26.09 25.83 25.87 26.06 26.09 26.10
7/1/2022 17:00 to 16:10 26.13 26.15 26.10 26.40 26.05 26.13
7/1/2022 16:00 to 15:10 26.16 26.07 26.07 25.75 25.97 25.98
7/1/2022 15:00 to 14:10 25.93 25.85 25.69 25.72 25.66 25.69
7/1/2022 14:00 to 13:10 25.64 25.63 25.84 25.66 25.66 25.62
7/1/2022 13:00 to 12:10 25.78 25.73 25.73 25.82 25.83 25.75
7/1/2022 12:00 to 11:10 25.62 25.68 25.70 25.73 25.68 25.80
7/1/2022 11:00 to 10:10 25.73 25.70 25.82 25.70 25.72 25.43
7/1/2022 10:00 to 9:10 25.72 25.79 25.79 25.84 25.76 26.00
7/1/2022 09:00 to 8:10 25.96 25.87 25.94 25.86 25.86 25.94
7/1/2022 08:00 to 7:10 25.85 26.06 25.93 25.94 25.99 26.02
7/1/2022 07:00 to 6:10 26.02 25.98 25.96 25.86 25.99 25.95
7/1/2022 06:00 to 5:10 26.06 25.98 25.94 26.04 25.93 25.94
7/1/2022 05:00 to 4:10 26.07 25.90 26.01 25.95 25.97 26.00
7/1/2022 04:00 to 3:10 25.94 26.06 25.99 25.76 26.02 26.00
7/1/2022 03:00 to 2:10 25.99 25.87 25.95 25.99 26.00 26.02
7/1/2022 02:00 to 1:10 25.96 26.05 25.99 25.74 25.75 26.04
7/1/2022 01:00 to 0:10 26.02 26.11 26.01 26.11 26.05 26.10
7/1/2022 00:00 to 23:10 26.25 26.19 26.21 26.23 26.14 26.18
6/30/2022 23:00 to 22:10 26.07 26.28 26.08 25.68 25.79 25.63
6/30/2022 22:00 to 21:10 25.53 25.78 25.93 25.72 25.71 25.59
6/30/2022 21:00 to 20:10 25.19 25.08 25.15 25.27 24.94 25.12
6/30/2022 20:00 to 19:10 24.89 24.69 24.69 24.39 24.67 26.17
6/30/2022 19:00 to 18:10 26.04 26.06 26.07 26.16 26.10 26.08
6/30/2022 18:00 to 17:10 25.96 25.79 25.86 25.29 24.92 24.99
6/30/2022 17:00 to 16:10 24.86 24.96 26.05 26.03 25.70 25.90
6/30/2022 16:00 to 15:10 25.64 25.57 25.61 25.66 25.65 25.63
6/30/2022 15:00 to 14:10 25.42 25.36 25.21 25.36 26.11 26.08
6/30/2022 14:00 to 13:10 26.21 26.01 26.12 26.13 26.06 26.05
6/30/2022 13:00 to 12:10 25.99 26.00 26.13 26.00 26.00 25.91
6/30/2022 12:00 to 11:10 25.83 25.98 26.06 25.99 25.94 25.96
6/30/2022 11:00 to 10:10 25.99 26.08 25.96 25.99 25.86 25.78
6/30/2022 10:00 to 9:10 25.43 24.71 25.05 25.98 26.06 25.96
6/30/2022 09:00 to 8:10 26.07 26.05 26.08 26.12 26.18 26.09
6/30/2022 08:00 to 7:10 26.06 26.07 26.25 26.14 26.13 26.13
6/30/2022 07:00 to 6:10 26.05 26.15 26.15 26.08 26.11 26.02
6/30/2022 06:00 to 5:10 26.08 26.09 26.02 26.15 26.15 26.21
6/30/2022 05:00 to 4:10 26.17 26.06 26.07 26.11 26.07 26.09
6/30/2022 04:00 to 3:10 26.17 26.13 26.04 26.09 26.00 25.95
6/30/2022 03:00 to 2:10 26.00 26.11 26.06 26.03 25.93 26.12
6/30/2022 02:00 to 1:10 25.94 26.06 26.06 25.97 26.09 26.11
6/30/2022 01:00 to 0:10 26.09 26.13 26.01 26.10 26.14 26.19